Bentonville, AR

4:35 PM CDT on October 20, 2014 (GMT -0500)
Blueberry Heights | Change Station
CLOSE
Current Station
Personal Weather Station
Location: Bentonville, AR
Elevation: 1306 ft
Nearby Weather Stations

Elev 1306 ft 36.38 °N, 94.18 °W | Updated 2 seconds ago

Overcast
Overcast
69.8 °F
Feels Like 69.8 °F
N
0.0
Wind Variable Wind from South
Gusts 0.0 mph

Today
High -- | Low -- °F
--% Chance of Precip.
Yesterday
High -- | Low -- °F
Precip. -- in
7:28 AM 6:34 PM
Waning Crescent, 9% visible
Pressure 30.05 in
Visibility 10.0 miles
Clouds Overcast 2400 ft
Dew Point 59 °F
Humidity 69%
Rainfall 0.01 in
Snow Depth Not available.
UV 1 out of 12
Pollen 3.80 out of 12
Air Quality Not available.
Flu Activity Sporadic
METAR KVBT 202115Z AUTO 00000KT 10SM OVC024 20/14 A3005 RMK AO1

More Conditions Fewer Conditions

Pressure 30.05 in
Visibility 10.0 miles
Clouds Overcast 2400 ft
Dew Point 59 °F
Humidity 69%
Rainfall 0.01 in
Snow Depth Not available.
UV 1 out of 12
Pollen 3.80 out of 12
Air Quality Not available.
Flu Activity Sporadic
METAR KVBT 202115Z AUTO 00000KT 10SM OVC024 20/14 A3005 RMK AO1

More Conditions Fewer Conditions

10-Day Weather Forecast

Almanac

Astronomy

Oct. 20, 2014 Rise Set
Actual Time 7:28 AM CDT 6:34 PM CDT
Civil Twilight 7:02 AM CDT 7:00 PM CDT
Nautical Twilight 6:32 AM CDT 7:30 PM CDT
Astronomical Twilight 6:02 AM CDT 7:59 PM CDT
Moon 4:22 AM CDT 4:52 PM CDT
Length of Visible Light 11h 57m
Length of Day
11h 05m
Waning Crescent, 9% of the Moon is Illuminated
Today
Waning Crescent
Oct 23
New
Oct 30
First Quarter
Nov 6
Full
Nov 14
Last Quarter

Today's Extremes

State Highs State Lows

Community

WunderPhotos

Upload Photos

1,763,525 photos uploaded!

WunderBlogs® & News

Nearby

Snow Depth

Station Depth Elevation
No new snow has been reported.

Earthquake Activity

City Distance Mag. Time & Date
No recent earthquake activity has been reported nearby.
Minimum magnitude displayed is 2.5.

Coastal Water Temperatures

Place Temperature
No Stations Reporting

Nearby Weather Stations